Shiloh, North Carolina
Current Conditions -  °F | °C
As of 3:54 PM on Tuesday 21 Oct 2014 (Local Time) from KECG Reporting Station
Scattered Clouds Scattered Clouds  
Wind Chill: 72°   Ceiling: Unl
Heat Index: 72°   Visibility: 10mi
Dew Point: 54°   Wind: 8mph
Humidity: 53%   Direction: 220°SW
Pressure: 29.81"   Gusts: NA
Location:  36.27°N, 76.08°W
Report Text: KECG 211954Z 22007KT 10SM SCT049 22/12 A2981 RMK AO2 SLP093 T02220122
Loading
Personal Weather Stations






























Interactive Weather Map
Tropical Storm Tracking
New forecast layout! Learn more

10-Day Weather Forecast

Advertisements
Track Severe Weather on mobile